| time (UTC) | temp F | wind direction | speed MPH | gust MPH | rain 1hr in | rain 24hr in | rain mn in | humidity % | barometer mb |
| 20260906060122 | 72 | 51 | 5.0 | 12.0 | 0.00 | 0.00 | 0.00 | 87 | 1015.3 |
| 20260906054548 | 73 | 46 | 4.0 | 12.0 | 0.00 | 0.00 | 0.00 | 87 | 1015.4 |
| 20260906053045 | 73 | 57 | 5.0 | 11.0 | 0.00 | 0.00 | 0.00 | 87 | 1015.3 |
| 20260906051543 | 73 | 55 | 7.0 | 14.0 | 0.00 | 0.00 | 0.00 | 87 | 1015.1 |
| 20260906050040 | 73 | 53 | 6.0 | 10.0 | 0.00 | 0.00 | 0.00 | 88 | 1015.1 |
| 20260906044537 | 74 | 39 | 4.0 | 11.0 | 0.00 | 0.00 | 0.00 | 88 | 1015.2 |
| 20260906043039 | 74 | 23 | 4.0 | 10.0 | 0.00 | 0.00 | 0.00 | 88 | 1014.9 |
| 20260906041535 | 74 | 29 | 3.0 | 13.0 | 0.00 | 0.00 | 0.00 | 89 | 1014.5 |
| 20260906040035 | 74 | 50 | 2.0 | 6.0 | 0.00 | 0.00 | 0.00 | 88 | 1014.3 |
| 20260906034532 | 74 | 52 | 3.0 | 6.0 | 0.00 | 0.00 | 0.00 | 88 | 1014.0 |
| 20260906033026 | 74 | 27 | 2.0 | 4.0 | 0.00 | 0.00 | 0.00 | 88 | 1014.0 |
| 20260906031542 | 74 | 86 | 0.0 | 1.0 | 0.00 | 0.00 | 0.00 | 87 | 1014.1 |
| 20260906030022 | 74 | 86 | 0.0 | 4.0 | 0.00 | 0.00 | 0.00 | 87 | 1013.7 |
| 20260906024523 | 74 | 86 | 2.0 | 4.0 | 0.00 | 0.00 | 0.00 | 87 | 1013.7 |
| 20260906023019 | 74 | 62 | 1.0 | 5.0 | 0.00 | 0.00 | 0.00 | 88 | 1013.4 |
| 20260906021521 | 74 | 56 | 1.0 | 3.0 | 0.00 | 0.00 | 0.00 | 87 | 1013.4 |
| 20260906020016 | 74 | 56 | 2.0 | 6.0 | 0.00 | 0.00 | 0.00 | 86 | 1013.1 |
| 20260906014523 | 74 | 51 | 2.0 | 6.0 | 0.00 | 0.00 | 0.00 | 86 | 1013.1 |
| 20260906013013 | 75 | 74 | 3.0 | 7.0 | 0.00 | 0.00 | 0.00 | 85 | 1012.8 |
| 20260906011512 | 76 | 70 | 3.0 | 8.0 | 0.00 | 0.00 | 0.00 | 84 | 1012.7 |
| 20260906010013 | 77 | 22 | 4.0 | 9.0 | 0.00 | 0.00 | 0.00 | 82 | 1012.9 |
| 20260906004511 | 78 | 36 | 7.0 | 13.0 | 0.00 | 0.00 | 0.00 | 81 | 1012.8 |
| 20260906003009 | 79 | 40 | 6.0 | 14.0 | 0.00 | 0.00 | 0.00 | 79 | 1012.8 |
| 20260906001509 | 81 | 50 | 6.0 | 12.0 | 0.00 | 0.00 | 0.00 | 77 | 1012.9 |
| 20260906000008 | 82 | 5 | 5.0 | 12.0 | 0.00 | 0.00 | 0.00 | 75 | 1012.6 |
| 20260905234507 | 83 | 26 | 4.0 | 15.0 | 0.00 | 0.00 | 0.00 | 73 | 1012.5 |
| 20260905233005 | 85 | 35 | 6.0 | 15.0 | 0.00 | 0.00 | 0.00 | 73 | 1012.4 |
| 20260905231505 | 86 | 10 | 3.0 | 14.0 | 0.00 | 0.00 | 0.00 | 72 | 1012.3 |
| 20260905230004 | 87 | 21 | 9.0 | 15.0 | 0.00 | 0.00 | 0.00 | 72 | 1012.3 |
| 20260905224504 | 87 | 23 | 4.0 | 14.0 | 0.00 | 0.00 | 0.00 | 71 | 1012.5 |
| 20260905223003 | 88 | 355 | 2.0 | 16.0 | 0.00 | 0.00 | 0.00 | 70 | 1012.3 |
| 20260905221502 | 88 | 50 | 8.0 | 15.0 | 0.00 | 0.00 | 0.00 | 69 | 1012.0 |
| 20260905220001 | 89 | 18 | 7.0 | 15.0 | 0.00 | 0.00 | 0.00 | 68 | 1012.0 |
| 20260905214607 | 90 | 38 | 4.0 | 11.0 | 0.00 | 0.00 | 0.00 | 67 | 1012.1 |
| 20260905213058 | 91 | 24 | 4.0 | 13.0 | 0.00 | 0.00 | 0.00 | 67 | 1012.0 |
| 20260905211559 | 91 | 360 | 6.0 | 14.0 | 0.00 | 0.00 | 0.00 | 67 | 1011.7 |
| 20260905210107 | 92 | 360 | 3.0 | 11.0 | 0.00 | 0.00 | 0.00 | 67 | 1011.7 |
| 20260905204558 | 93 | 33 | 6.0 | 13.0 | 0.00 | 0.00 | 0.00 | 65 | 1011.7 |
| 20260905203059 | 94 | 18 | 5.0 | 11.0 | 0.00 | 0.00 | 0.00 | 64 | 1011.8 |
| 20260905201553 | 94 | 51 | 3.0 | 10.0 | 0.00 | 0.00 | 0.00 | 63 | 1011.9 |
| 20260905200100 | 93 | 351 | 2.0 | 6.0 | 0.00 | 0.00 | 0.00 | 66 | 1011.8 |
| 20260905194548 | 92 | 58 | 4.0 | 9.0 | 0.00 | 0.00 | 0.00 | 66 | 1011.9 |
| 20260905193045 | 93 | 43 | 3.0 | 7.0 | 0.00 | 0.00 | 0.00 | 64 | 1012.0 |
| 20260905191544 | 93 | 330 | 2.0 | 6.0 | 0.00 | 0.00 | 0.00 | 66 | 1012.1 |
| 20260905190046 | 92 | 320 | 1.0 | 9.0 | 0.00 | 0.00 | 0.00 | 67 | 1012.4 |
| 20260905184539 | 92 | 341 | 4.0 | 10.0 | 0.00 | 0.00 | 0.00 | 65 | 1012.4 |
| 20260905183036 | 92 | 10 | 2.0 | 6.0 | 0.00 | 0.00 | 0.00 | 66 | 1012.3 |
| 20260905181535 | 92 | 49 | 3.0 | 9.0 | 0.00 | 0.00 | 0.00 | 66 | 1012.4 |
| 20260905180046 | 91 | 52 | 4.0 | 10.0 | 0.00 | 0.00 | 0.00 | 65 | 1012.4 |
| 20260905174526 | 91 | 70 | 4.0 | 9.0 | 0.00 | 0.00 | 0.00 | 67 | 1012.6 |
| 20260905173025 | 90 | 28 | 3.0 | 7.0 | 0.00 | 0.00 | 0.00 | 68 | 1012.5 |
| 20260905171530 | 90 | 41 | 6.0 | 11.0 | 0.00 | 0.00 | 0.00 | 69 | 1012.6 |
| 20260905170023 | 91 | 68 | 4.0 | 12.0 | 0.00 | 0.00 | 0.00 | 66 | 1012.8 |
| 20260905164520 | 91 | 37 | 2.0 | 11.0 | 0.00 | 0.00 | 0.00 | 68 | 1012.9 |
| 20260905163016 | 88 | 58 | 5.0 | 10.0 | 0.00 | 0.00 | 0.00 | 73 | 1012.9 |
| 20260905161523 | 88 | 65 | 4.0 | 9.0 | 0.00 | 0.00 | 0.00 | 70 | 1012.9 |
| 20260905160014 | 89 | 62 | 3.0 | 10.0 | 0.00 | 0.00 | 0.00 | 70 | 1012.8 |
| 20260905154511 | 89 | 68 | 1.0 | 8.0 | 0.00 | 0.00 | 0.00 | 72 | 1012.8 |
| 20260905153008 | 88 | 10 | 3.0 | 10.0 | 0.00 | 0.00 | 0.00 | 73 | 1012.8 |
| 20260905151507 | 87 | 62 | 4.0 | 11.0 | 0.00 | 0.00 | 0.00 | 71 | 1012.7 |
| 20260905150005 | 87 | 21 | 1.0 | 7.0 | 0.00 | 0.00 | 0.00 | 73 | 1012.5 |
| 20260905144502 | 86 | 62 | 6.0 | 11.0 | 0.00 | 0.00 | 0.00 | 73 | 1012.4 |
| 20260905143101 | 86 | 44 | 7.0 | 11.0 | 0.00 | 0.00 | 0.00 | 74 | 1012.2 |
| 20260905141555 | 85 | 36 | 4.0 | 8.0 | 0.00 | 0.00 | 0.00 | 79 | 1012.1 |
| 20260905140058 | 84 | 43 | 3.0 | 9.0 | 0.00 | 0.00 | 0.00 | 83 | 1012.0 |
| 20260905134557 | 82 | 38 | 3.0 | 8.0 | 0.00 | 0.00 | 0.00 | 84 | 1012.1 |
| 20260905133047 | 81 | 14 | 1.0 | 5.0 | 0.00 | 0.00 | 0.00 | 87 | 1012.0 |
| 20260905131539 | 80 | 61 | 2.0 | 5.0 | 0.00 | 0.00 | 0.00 | 87 | 1011.9 |
| 20260905130037 | 79 | 49 | 0.0 | 3.0 | 0.00 | 0.00 | 0.00 | 90 | 1011.8 |
| 20260905124534 | 78 | 5 | 1.0 | 5.0 | 0.00 | 0.00 | 0.00 | 92 | 1011.8 |
| 20260905123032 | 76 | 233 | 0.0 | 0.0 | 0.00 | 0.00 | 0.00 | 94 | 1011.7 |
| 20260905121530 | 75 | 233 | 0.0 | 2.0 | 0.00 | 0.00 | 0.00 | 94 | 1011.6 |
| 20260905120040 | 75 | 233 | 0.0 | 1.0 | 0.00 | 0.00 | 0.00 | 93 | 1011.2 |
| 20260905114527 | 75 | 233 | 0.0 | 2.0 | 0.00 | 0.00 | 0.00 | 92 | 1010.9 |
| 20260905113028 | 75 | 233 | 0.0 | 0.0 | 0.00 | 0.00 | 0.00 | 92 | 1010.7 |
| 20260905111542 | 75 | 233 | 0.0 | 1.0 | 0.00 | 0.00 | 0.00 | 92 | 1010.6 |
| 20260905110024 | 76 | 233 | 0.0 | 2.0 | 0.00 | 0.00 | 0.00 | 91 | 1010.6 |
| 20260905104522 | 76 | 233 | 0.0 | 1.0 | 0.00 | 0.00 | 0.00 | 91 | 1010.5 |
| 20260905103025 | 76 | 233 | 0.0 | 2.0 | 0.00 | 0.00 | 0.00 | 90 | 1010.7 |
| 20260905101516 | 77 | 233 | 0.0 | 2.0 | 0.00 | 0.00 | 0.00 | 90 | 1010.6 |
| 20260905100016 | 77 | 233 | 0.0 | 2.0 | 0.00 | 0.00 | 0.00 | 89 | 1010.7 |
| 20260905094515 | 78 | 233 | 0.0 | 1.0 | 0.00 | 0.00 | 0.00 | 88 | 1010.7 |
| 20260905093123 | 78 | 233 | 0.0 | 1.0 | 0.00 | 0.00 | 0.00 | 87 | 1010.8 |
| 20260905091510 | 79 | 233 | 0.0 | 5.0 | 0.00 | 0.00 | 0.00 | 87 | 1010.7 |
| 20260905090009 | 79 | 230 | 3.0 | 5.0 | 0.00 | 0.00 | 0.00 | 88 | 1010.6 |
| 20260905084507 | 78 | 199 | 2.0 | 3.0 | 0.00 | 0.00 | 0.00 | 89 | 1010.8 |
| 20260905083008 | 78 | 199 | 1.0 | 3.0 | 0.00 | 0.00 | 0.00 | 89 | 1010.9 |
| 20260905081506 | 79 | 199 | 0.0 | 2.0 | 0.00 | 0.00 | 0.00 | 88 | 1011.0 |
| 20260905080005 | 79 | 199 | 0.0 | 1.0 | 0.00 | 0.00 | 0.00 | 87 | 1011.1 |
| 20260905074504 | 80 | 199 | 0.0 | 3.0 | 0.00 | 0.00 | 0.00 | 86 | 1011.0 |
| 20260905073003 | 80 | 199 | 0.0 | 4.0 | 0.00 | 0.00 | 0.00 | 87 | 1010.9 |
| 20260905071502 | 80 | 199 | 1.0 | 3.0 | 0.00 | 0.00 | 0.00 | 87 | 1011.0 |
| 20260905070004 | 80 | 199 | 0.0 | 2.0 | 0.00 | 0.00 | 0.00 | 87 | 1011.1 |
| 20260905064506 | 79 | 34 | 1.0 | 3.0 | 0.00 | 0.00 | 0.00 | 89 | 1010.9 |
| 20260905063102 | 78 | 34 | 0.0 | 3.0 | 0.00 | 0.00 | 0.00 | 89 | 1011.1 |
| 20260905061559 | 79 | 34 | 0.0 | 1.0 | 0.00 | 0.00 | 0.00 | 88 | 1011.1 |